sensor_id;sensor_type;location;lat;lon;timestamp;pressure;altitude;pressure_sealevel;temperature;humidity
71149;BME280;59072;42.144;25.200;2023-04-21T00:02:24;99617.53;;;11.93;100.00
71149;BME280;59072;42.144;25.200;2023-04-21T00:04:51;99627.66;;;11.91;100.00
71149;BME280;59072;42.144;25.200;2023-04-21T00:07:17;99618.47;;;11.87;100.00
71149;BME280;59072;42.144;25.200;2023-04-21T00:09:44;99623.91;;;12.21;100.00
71149;BME280;59072;42.144;25.200;2023-04-21T00:12:10;99620.06;;;12.00;100.00
71149;BME280;59072;42.144;25.200;2023-04-21T00:14:35;99603.16;;;11.71;100.00
71149;BME280;59072;42.144;25.200;2023-04-21T00:17:01;99624.69;;;11.64;100.00
71149;BME280;59072;42.144;25.200;2023-04-21T00:19:29;99621.59;;;11.84;100.00
71149;BME280;59072;42.144;25.200;2023-04-21T00:21:54;99620.34;;;11.75;100.00
71149;BME280;59072;42.144;25.200;2023-04-21T00:24:23;99620.06;;;11.59;100.00
71149;BME280;59072;42.144;25.200;2023-04-21T00:26:49;99614.97;;;11.46;100.00
71149;BME280;59072;42.144;25.200;2023-04-21T00:29:15;99609.56;;;11.17;100.00
71149;BME280;59072;42.144;25.200;2023-04-21T00:31:40;99615.78;;;11.46;100.00
71149;BME280;59072;42.144;25.200;2023-04-21T00:34:06;99613.22;;;11.40;100.00
71149;BME280;59072;42.144;25.200;2023-04-21T00:36:31;99609.72;;;11.63;100.00
71149;BME280;59072;42.144;25.200;2023-04-21T00:38:56;99611.75;;;11.73;100.00
71149;BME280;59072;42.144;25.200;2023-04-21T00:41:22;99604.56;;;11.73;100.00
71149;BME280;59072;42.144;25.200;2023-04-21T00:44:03;99621.38;;;11.45;100.00
71149;BME280;59072;42.144;25.200;2023-04-21T00:46:29;99618.13;;;11.31;100.00
71149;BME280;59072;42.144;25.200;2023-04-21T00:48:56;99614.22;;;11.10;100.00
71149;BME280;59072;42.144;25.200;2023-04-21T00:51:21;99613.63;;;11.08;100.00
71149;BME280;59072;42.144;25.200;2023-04-21T00:53:47;99603.84;;;11.25;100.00
71149;BME280;59072;42.144;25.200;2023-04-21T00:56:13;99608.66;;;11.12;100.00
71149;BME280;59072;42.144;25.200;2023-04-21T00:58:41;99586.97;;;10.61;100.00
71149;BME280;59072;42.144;25.200;2023-04-21T01:01:07;99605.38;;;10.51;100.00
71149;BME280;59072;42.144;25.200;2023-04-21T01:03:33;99602.72;;;10.74;100.00
71149;BME280;59072;42.144;25.200;2023-04-21T01:05:58;99600.97;;;10.68;100.00
71149;BME280;59072;42.144;25.200;2023-04-21T01:08:25;99585.06;;;10.50;100.00
71149;BME280;59072;42.144;25.200;2023-04-21T01:10:51;99595.41;;;10.58;100.00
71149;BME280;59072;42.144;25.200;2023-04-21T01:13:19;99592.88;;;10.75;100.00
71149;BME280;59072;42.144;25.200;2023-04-21T01:15:46;99595.31;;;10.76;100.00
71149;BME280;59072;42.144;25.200;2023-04-21T01:18:12;99582.06;;;10.34;100.00
71149;BME280;59072;42.144;25.200;2023-04-21T01:20:38;99594.84;;;10.79;100.00
71149;BME280;59072;42.144;25.200;2023-04-21T01:23:04;99592.19;;;10.79;100.00
71149;BME280;59072;42.144;25.200;2023-04-21T01:25:30;99593.59;;;10.28;100.00
71149;BME280;59072;42.144;25.200;2023-04-21T01:27:55;99591.72;;;9.86;100.00
71149;BME280;59072;42.144;25.200;2023-04-21T01:30:21;99598.03;;;10.34;100.00
71149;BME280;59072;42.144;25.200;2023-04-21T01:32:46;99596.22;;;10.70;100.00
71149;BME280;59072;42.144;25.200;2023-04-21T01:35:11;99590.91;;;10.16;100.00
71149;BME280;59072;42.144;25.200;2023-04-21T01:37:37;99598.31;;;9.84;100.00
71149;BME280;59072;42.144;25.200;2023-04-21T01:40:05;99572.81;;;9.46;100.00
71149;BME280;59072;42.144;25.200;2023-04-21T01:42:32;99595.97;;;10.06;100.00
71149;BME280;59072;42.144;25.200;2023-04-21T01:44:58;99597.03;;;10.17;100.00
71149;BME280;59072;42.144;25.200;2023-04-21T01:47:24;99595.16;;;10.05;100.00
71149;BME280;59072;42.144;25.200;2023-04-21T01:49:50;99595.84;;;10.13;100.00
71149;BME280;59072;42.144;25.200;2023-04-21T01:52:16;99600.16;;;10.25;100.00
71149;BME280;59072;42.144;25.200;2023-04-21T01:54:41;99601.19;;;10.43;100.00
71149;BME280;59072;42.144;25.200;2023-04-21T01:57:07;99579.97;;;9.76;100.00
71149;BME280;59072;42.144;25.200;2023-04-21T01:59:32;99584.25;;;9.95;100.00
71149;BME280;59072;42.144;25.200;2023-04-21T02:01:58;99583.13;;;9.84;100.00
71149;BME280;59072;42.144;25.200;2023-04-21T02:04:23;99587.91;;;9.64;100.00
71149;BME280;59072;42.144;25.200;2023-04-21T02:06:49;99586.47;;;9.13;100.00
71149;BME280;59072;42.144;25.200;2023-04-21T02:09:14;99585.56;;;9.19;100.00
71149;BME280;59072;42.144;25.200;2023-04-21T02:11:40;99583.78;;;9.50;100.00
71149;BME280;59072;42.144;25.200;2023-04-21T02:14:05;99585.78;;;8.99;100.00
71149;BME280;59072;42.144;25.200;2023-04-21T02:16:31;99581.88;;;8.83;100.00
71149;BME280;59072;42.144;25.200;2023-04-21T02:18:57;99590.13;;;8.75;100.00
71149;BME280;59072;42.144;25.200;2023-04-21T02:21:23;99563.41;;;8.38;100.00
71149;BME280;59072;42.144;25.200;2023-04-21T02:23:50;99585.28;;;8.40;100.00
71149;BME280;59072;42.144;25.200;2023-04-21T02:26:16;99586.63;;;8.49;100.00
71149;BME280;59072;42.144;25.200;2023-04-21T02:28:41;99575.28;;;8.85;100.00
71149;BME280;59072;42.144;25.200;2023-04-21T02:31:07;99589.34;;;9.11;100.00
71149;BME280;59072;42.144;25.200;2023-04-21T02:33:32;99583.50;;;9.02;100.00
71149;BME280;59072;42.144;25.200;2023-04-21T02:35:58;99585.72;;;8.62;100.00
71149;BME280;59072;42.144;25.200;2023-04-21T02:38:23;99583.50;;;8.59;100.00
71149;BME280;59072;42.144;25.200;2023-04-21T02:40:49;99581.91;;;8.76;100.00
71149;BME280;59072;42.144;25.200;2023-04-21T02:43:15;99594.81;;;8.98;100.00
71149;BME280;59072;42.144;25.200;2023-04-21T02:45:40;99581.09;;;8.19;100.00
71149;BME280;59072;42.144;25.200;2023-04-21T02:48:06;99587.47;;;8.18;100.00
71149;BME280;59072;42.144;25.200;2023-04-21T02:50:31;99588.00;;;8.58;100.00
71149;BME280;59072;42.144;25.200;2023-04-21T02:52:57;99590.19;;;8.04;100.00
71149;BME280;59072;42.144;25.200;2023-04-21T02:55:22;99596.63;;;8.54;100.00
71149;BME280;59072;42.144;25.200;2023-04-21T02:57:49;99587.44;;;8.50;100.00
71149;BME280;59072;42.144;25.200;2023-04-21T03:00:14;99609.44;;;8.32;100.00
71149;BME280;59072;42.144;25.200;2023-04-21T03:02:40;99608.34;;;8.39;100.00
71149;BME280;59072;42.144;25.200;2023-04-21T03:05:06;99610.22;;;8.00;100.00
71149;BME280;59072;42.144;25.200;2023-04-21T03:07:31;99603.38;;;8.50;100.00
71149;BME280;59072;42.144;25.200;2023-04-21T03:09:57;99599.63;;;8.32;100.00
71149;BME280;59072;42.144;25.200;2023-04-21T03:12:22;99607.75;;;8.05;100.00
71149;BME280;59072;42.144;25.200;2023-04-21T03:14:49;99615.94;;;8.04;100.00
71149;BME280;59072;42.144;25.200;2023-04-21T03:17:14;99609.38;;;8.07;100.00
71149;BME280;59072;42.144;25.200;2023-04-21T03:19:40;99608.34;;;7.69;100.00
71149;BME280;59072;42.144;25.200;2023-04-21T03:22:05;99601.59;;;8.12;100.00
71149;BME280;59072;42.144;25.200;2023-04-21T03:24:31;99607.31;;;8.09;100.00
71149;BME280;59072;42.144;25.200;2023-04-21T03:26:57;99601.75;;;8.17;100.00
71149;BME280;59072;42.144;25.200;2023-04-21T03:29:22;99604.66;;;8.09;100.00
71149;BME280;59072;42.144;25.200;2023-04-21T03:31:48;99592.69;;;7.99;100.00
71149;BME280;59072;42.144;25.200;2023-04-21T03:34:13;99601.75;;;7.78;100.00
71149;BME280;59072;42.144;25.200;2023-04-21T03:36:39;99620.41;;;8.10;100.00
71149;BME280;59072;42.144;25.200;2023-04-21T03:39:05;99620.09;;;8.25;100.00
71149;BME280;59072;42.144;25.200;2023-04-21T03:41:32;99600.28;;;8.21;100.00
71149;BME280;59072;42.144;25.200;2023-04-21T03:43:57;99619.09;;;8.26;100.00
71149;BME280;59072;42.144;25.200;2023-04-21T03:46:23;99617.63;;;8.30;100.00
71149;BME280;59072;42.144;25.200;2023-04-21T03:48:48;99624.25;;;7.76;100.00
71149;BME280;59072;42.144;25.200;2023-04-21T03:51:14;99618.38;;;8.05;100.00
71149;BME280;59072;42.144;25.200;2023-04-21T03:53:40;99623.34;;;8.27;100.00
71149;BME280;59072;42.144;25.200;2023-04-21T03:56:05;99632.09;;;8.41;100.00
71149;BME280;59072;42.144;25.200;2023-04-21T03:58:31;99627.47;;;8.23;100.00
71149;BME280;59072;42.144;25.200;2023-04-21T04:00:56;99626.06;;;8.20;100.00
71149;BME280;59072;42.144;25.200;2023-04-21T04:03:22;99619.72;;;7.83;100.00
71149;BME280;59072;42.144;25.200;2023-04-21T04:05:47;99622.94;;;8.30;100.00
71149;BME280;59072;42.144;25.200;2023-04-21T04:08:12;99632.53;;;8.31;100.00
71149;BME280;59072;42.144;25.200;2023-04-21T04:10:38;99637.13;;;8.74;100.00
71149;BME280;59072;42.144;25.200;2023-04-21T04:13:03;99643.72;;;8.72;100.00
71149;BME280;59072;42.144;25.200;2023-04-21T04:15:29;99650.09;;;8.64;100.00
71149;BME280;59072;42.144;25.200;2023-04-21T04:17:54;99641.84;;;8.47;100.00
71149;BME280;59072;42.144;25.200;2023-04-21T04:20:20;99651.66;;;8.97;100.00
71149;BME280;59072;42.144;25.200;2023-04-21T04:22:45;99650.06;;;8.96;100.00
71149;BME280;59072;42.144;25.200;2023-04-21T04:25:11;99653.34;;;9.16;100.00
71149;BME280;59072;42.144;25.200;2023-04-21T04:27:41;99653.25;;;9.04;100.00
71149;BME280;59072;42.144;25.200;2023-04-21T04:30:08;99658.94;;;9.08;100.00
71149;BME280;59072;42.144;25.200;2023-04-21T04:32:34;99661.16;;;9.11;100.00
71149;BME280;59072;42.144;25.200;2023-04-21T04:35:03;99669.41;;;9.65;100.00
71149;BME280;59072;42.144;25.200;2023-04-21T04:37:28;99674.38;;;9.61;100.00
71149;BME280;59072;42.144;25.200;2023-04-21T04:39:54;99672.00;;;9.72;100.00
71149;BME280;59072;42.144;25.200;2023-04-21T04:42:19;99672.78;;;9.91;100.00
71149;BME280;59072;42.144;25.200;2023-04-21T04:44:45;99669.72;;;9.75;100.00
71149;BME280;59072;42.144;25.200;2023-04-21T04:47:11;99650.53;;;10.03;100.00
71149;BME280;59072;42.144;25.200;2023-04-21T04:49:37;99642.38;;;9.98;100.00
71149;BME280;59072;42.144;25.200;2023-04-21T04:52:03;99658.72;;;10.02;100.00
71149;BME280;59072;42.144;25.200;2023-04-21T04:54:28;99662.19;;;10.02;100.00
71149;BME280;59072;42.144;25.200;2023-04-21T04:56:54;99666.53;;;9.85;100.00
71149;BME280;59072;42.144;25.200;2023-04-21T04:59:20;99662.84;;;9.68;100.00
71149;BME280;59072;42.144;25.200;2023-04-21T05:01:45;99642.63;;;9.41;100.00
71149;BME280;59072;42.144;25.200;2023-04-21T05:04:10;99669.63;;;9.27;100.00
71149;BME280;59072;42.144;25.200;2023-04-21T05:06:40;99669.66;;;9.01;100.00
71149;BME280;59072;42.144;25.200;2023-04-21T05:09:06;99667.56;;;9.47;100.00
71149;BME280;59072;42.144;25.200;2023-04-21T05:11:31;99663.94;;;8.98;100.00
71149;BME280;59072;42.144;25.200;2023-04-21T05:13:57;99660.75;;;9.33;100.00
71149;BME280;59072;42.144;25.200;2023-04-21T05:16:22;99655.81;;;9.36;100.00
71149;BME280;59072;42.144;25.200;2023-04-21T05:18:47;99669.41;;;9.83;100.00
71149;BME280;59072;42.144;25.200;2023-04-21T05:21:21;99646.72;;;9.44;100.00
71149;BME280;59072;42.144;25.200;2023-04-21T05:23:47;99656.47;;;9.87;100.00
71149;BME280;59072;42.144;25.200;2023-04-21T05:26:12;99653.03;;;9.98;100.00
71149;BME280;59072;42.144;25.200;2023-04-21T05:28:38;99647.88;;;10.15;100.00
71149;BME280;59072;42.144;25.200;2023-04-21T05:31:04;99644.69;;;10.25;100.00
71149;BME280;59072;42.144;25.200;2023-04-21T05:33:30;99663.88;;;10.45;100.00
71149;BME280;59072;42.144;25.200;2023-04-21T05:35:56;99653.03;;;10.59;100.00
71149;BME280;59072;42.144;25.200;2023-04-21T05:38:21;99647.97;;;10.93;100.00
71149;BME280;59072;42.144;25.200;2023-04-21T05:40:53;99654.91;;;11.17;100.00
71149;BME280;59072;42.144;25.200;2023-04-21T05:43:21;99663.59;;;11.48;100.00
71149;BME280;59072;42.144;25.200;2023-04-21T05:45:48;99655.41;;;11.78;100.00
71149;BME280;59072;42.144;25.200;2023-04-21T05:48:13;99652.97;;;11.77;100.00
71149;BME280;59072;42.144;25.200;2023-04-21T05:50:38;99651.06;;;12.01;100.00
71149;BME280;59072;42.144;25.200;2023-04-21T05:53:04;99647.63;;;12.17;100.00
71149;BME280;59072;42.144;25.200;2023-04-21T05:55:29;99641.97;;;12.14;100.00
71149;BME280;59072;42.144;25.200;2023-04-21T05:57:55;99629.56;;;12.08;100.00
71149;BME280;59072;42.144;25.200;2023-04-21T06:00:20;99643.31;;;12.28;100.00
71149;BME280;59072;42.144;25.200;2023-04-21T06:02:46;99639.63;;;12.63;100.00
71149;BME280;59072;42.144;25.200;2023-04-21T06:05:11;99644.13;;;12.45;100.00
71149;BME280;59072;42.144;25.200;2023-04-21T06:07:37;99627.44;;;12.72;100.00
71149;BME280;59072;42.144;25.200;2023-04-21T06:10:03;99639.78;;;12.73;100.00
71149;BME280;59072;42.144;25.200;2023-04-21T06:12:28;99623.06;;;12.66;100.00
71149;BME280;59072;42.144;25.200;2023-04-21T06:14:53;99632.72;;;12.84;100.00
71149;BME280;59072;42.144;25.200;2023-04-21T06:17:22;99612.97;;;13.07;100.00
71149;BME280;59072;42.144;25.200;2023-04-21T06:19:48;99636.03;;;13.08;100.00
71149;BME280;59072;42.144;25.200;2023-04-21T06:22:18;99644.09;;;13.13;100.00
71149;BME280;59072;42.144;25.200;2023-04-21T06:24:44;99641.09;;;13.26;100.00
71149;BME280;59072;42.144;25.200;2023-04-21T06:27:10;99639.97;;;13.61;100.00
71149;BME280;59072;42.144;25.200;2023-04-21T06:29:39;99650.00;;;13.71;100.00
71149;BME280;59072;42.144;25.200;2023-04-21T06:32:07;99658.31;;;14.19;99.28
71149;BME280;59072;42.144;25.200;2023-04-21T06:34:32;99652.38;;;14.17;99.72
71149;BME280;59072;42.144;25.200;2023-04-21T06:36:58;99657.88;;;14.32;96.43
71149;BME280;59072;42.144;25.200;2023-04-21T06:39:23;99658.56;;;14.44;95.36
71149;BME280;59072;42.144;25.200;2023-04-21T06:41:48;99660.47;;;14.76;94.73
71149;BME280;59072;42.144;25.200;2023-04-21T06:44:14;99656.28;;;14.91;93.99
71149;BME280;59072;42.144;25.200;2023-04-21T06:46:40;99654.06;;;14.82;94.54
71149;BME280;59072;42.144;25.200;2023-04-21T06:49:06;99655.94;;;15.19;91.80
71149;BME280;59072;42.144;25.200;2023-04-21T06:51:32;99636.69;;;15.33;93.16
71149;BME280;59072;42.144;25.200;2023-04-21T06:53:58;99651.72;;;15.29;88.89
71149;BME280;59072;42.144;25.200;2023-04-21T06:56:25;99649.94;;;15.55;90.38
71149;BME280;59072;42.144;25.200;2023-04-21T06:58:51;99640.56;;;15.57;93.01
71149;BME280;59072;42.144;25.200;2023-04-21T07:01:16;99632.91;;;15.81;85.87
71149;BME280;59072;42.144;25.200;2023-04-21T07:03:42;99650.09;;;15.75;89.30
71149;BME280;59072;42.144;25.200;2023-04-21T07:06:07;99638.28;;;15.81;85.66
71149;BME280;59072;42.144;25.200;2023-04-21T07:08:33;99641.81;;;15.92;86.32
71149;BME280;59072;42.144;25.200;2023-04-21T07:10:58;99641.81;;;15.92;86.72
71149;BME280;59072;42.144;25.200;2023-04-21T07:13:24;99639.41;;;16.11;84.46
71149;BME280;59072;42.144;25.200;2023-04-21T07:15:49;99640.00;;;16.44;81.55
71149;BME280;59072;42.144;25.200;2023-04-21T07:18:15;99642.69;;;16.64;81.32
71149;BME280;59072;42.144;25.200;2023-04-21T07:20:40;99645.94;;;16.51;80.37
71149;BME280;59072;42.144;25.200;2023-04-21T07:23:06;99644.84;;;16.62;80.14
71149;BME280;59072;42.144;25.200;2023-04-21T07:25:31;99647.28;;;16.64;78.98
71149;BME280;59072;42.144;25.200;2023-04-21T07:27:56;99643.00;;;16.99;81.52
71149;BME280;59072;42.144;25.200;2023-04-21T07:30:22;99649.47;;;17.08;81.16
71149;BME280;59072;42.144;25.200;2023-04-21T07:32:47;99644.03;;;17.23;78.88
71149;BME280;59072;42.144;25.200;2023-04-21T07:35:13;99642.94;;;17.35;75.12
71149;BME280;59072;42.144;25.200;2023-04-21T07:37:38;99648.59;;;17.28;75.96
71149;BME280;59072;42.144;25.200;2023-04-21T07:40:06;99644.78;;;17.39;69.50
71149;BME280;59072;42.144;25.200;2023-04-21T07:42:32;99633.72;;;17.46;71.39
71149;BME280;59072;42.144;25.200;2023-04-21T07:44:57;99635.53;;;17.66;66.61
71149;BME280;59072;42.144;25.200;2023-04-21T07:47:25;99644.94;;;17.74;64.97
71149;BME280;59072;42.144;25.200;2023-04-21T07:49:51;99641.47;;;17.63;62.54
71149;BME280;59072;42.144;25.200;2023-04-21T07:52:16;99653.25;;;17.77;63.14
71149;BME280;59072;42.144;25.200;2023-04-21T07:54:41;99650.78;;;17.96;58.07
71149;BME280;59072;42.144;25.200;2023-04-21T07:57:07;99635.72;;;17.85;59.81
71149;BME280;59072;42.144;25.200;2023-04-21T07:59:32;99628.44;;;17.91;58.04
71149;BME280;59072;42.144;25.200;2023-04-21T08:01:58;99635.63;;;18.05;56.89
71149;BME280;59072;42.144;25.200;2023-04-21T08:04:23;99633.38;;;18.18;58.67
71149;BME280;59072;42.144;25.200;2023-04-21T08:06:49;99630.38;;;18.24;56.20
71149;BME280;59072;42.144;25.200;2023-04-21T08:09:15;99634.94;;;18.29;58.39
71149;BME280;59072;42.144;25.200;2023-04-21T08:11:40;99625.66;;;18.40;56.17
71149;BME280;59072;42.144;25.200;2023-04-21T08:14:06;99631.22;;;18.20;54.01
71149;BME280;59072;42.144;25.200;2023-04-21T08:16:33;99606.50;;;18.42;56.23
71149;BME280;59072;42.144;25.200;2023-04-21T08:18:59;99629.22;;;18.70;56.83
71149;BME280;59072;42.144;25.200;2023-04-21T08:21:24;99617.13;;;18.97;53.23
71149;BME280;59072;42.144;25.200;2023-04-21T08:23:50;99620.25;;;19.09;54.37
71149;BME280;59072;42.144;25.200;2023-04-21T08:26:15;99600.22;;;19.10;53.81
71149;BME280;59072;42.144;25.200;2023-04-21T08:28:43;99625.25;;;19.45;51.51
71149;BME280;59072;42.144;25.200;2023-04-21T08:31:08;99619.84;;;19.45;53.41
71149;BME280;59072;42.144;25.200;2023-04-21T08:33:33;99616.69;;;19.38;51.56
71149;BME280;59072;42.144;25.200;2023-04-21T08:35:59;99623.13;;;19.18;51.63
71149;BME280;59072;42.144;25.200;2023-04-21T08:38:24;99605.88;;;19.38;53.05
71149;BME280;59072;42.144;25.200;2023-04-21T08:40:50;99620.66;;;19.70;51.58
71149;BME280;59072;42.144;25.200;2023-04-21T08:43:15;99614.63;;;19.78;52.66
71149;BME280;59072;42.144;25.200;2023-04-21T08:45:42;99611.41;;;19.76;51.65
71149;BME280;59072;42.144;25.200;2023-04-21T08:48:12;99599.69;;;19.99;48.58
71149;BME280;59072;42.144;25.200;2023-04-21T08:50:43;99605.16;;;20.32;48.71
71149;BME280;59072;42.144;25.200;2023-04-21T08:53:10;99607.00;;;20.18;47.16
71149;BME280;59072;42.144;25.200;2023-04-21T08:55:35;99604.63;;;19.49;46.92
71149;BME280;59072;42.144;25.200;2023-04-21T08:58:04;99627.13;;;19.68;47.26
71149;BME280;59072;42.144;25.200;2023-04-21T09:00:31;99607.66;;;19.72;46.83
71149;BME280;59072;42.144;25.200;2023-04-21T09:03:00;99599.16;;;20.16;48.41
71149;BME280;59072;42.144;25.200;2023-04-21T09:05:28;99603.47;;;20.36;44.58
71149;BME280;59072;42.144;25.200;2023-04-21T09:08:11;99601.59;;;20.51;45.48
71149;BME280;59072;42.144;25.200;2023-04-21T09:10:50;99600.53;;;20.52;43.14
71149;BME280;59072;42.144;25.200;2023-04-21T09:13:17;99591.97;;;20.77;43.80
71149;BME280;59072;42.144;25.200;2023-04-21T09:15:45;99594.03;;;21.13;43.85
71149;BME280;59072;42.144;25.200;2023-04-21T09:18:23;99599.06;;;21.20;44.28
71149;BME280;59072;42.144;25.200;2023-04-21T09:20:50;99599.88;;;21.06;41.21
71149;BME280;59072;42.144;25.200;2023-04-21T09:23:16;99598.84;;;21.02;42.43
71149;BME280;59072;42.144;25.200;2023-04-21T09:25:43;99583.47;;;20.98;43.06
71149;BME280;59072;42.144;25.200;2023-04-21T09:28:10;99595.22;;;21.35;41.87
71149;BME280;59072;42.144;25.200;2023-04-21T09:30:36;99591.63;;;21.67;42.11
71149;BME280;59072;42.144;25.200;2023-04-21T09:33:02;99581.25;;;22.05;39.80
71149;BME280;59072;42.144;25.200;2023-04-21T09:35:28;99570.16;;;22.16;39.39
71149;BME280;59072;42.144;25.200;2023-04-21T09:37:54;99571.94;;;21.98;42.69
71149;BME280;59072;42.144;25.200;2023-04-21T09:40:19;99586.06;;;22.08;39.25
71149;BME280;59072;42.144;25.200;2023-04-21T09:42:45;99578.88;;;21.54;41.96
71149;BME280;59072;42.144;25.200;2023-04-21T09:45:11;99575.66;;;21.88;40.18
71149;BME280;59072;42.144;25.200;2023-04-21T09:47:41;99573.88;;;22.20;41.38
71149;BME280;59072;42.144;25.200;2023-04-21T09:50:09;99577.47;;;22.29;38.66
71149;BME280;59072;42.144;25.200;2023-04-21T09:52:37;99568.22;;;21.94;40.49
71149;BME280;59072;42.144;25.200;2023-04-21T09:55:09;99554.44;;;22.26;40.05
71149;BME280;59072;42.144;25.200;2023-04-21T09:57:38;99551.56;;;22.85;39.66
71149;BME280;59072;42.144;25.200;2023-04-21T10:00:08;99564.47;;;22.71;36.81
71149;BME280;59072;42.144;25.200;2023-04-21T10:02:43;99563.84;;;22.74;37.49
71149;BME280;59072;42.144;25.200;2023-04-21T10:05:12;99556.31;;;22.71;38.77
71149;BME280;59072;42.144;25.200;2023-04-21T10:07:37;99543.41;;;22.77;35.87
71149;BME280;59072;42.144;25.200;2023-04-21T10:10:08;99540.72;;;23.25;37.89
71149;BME280;59072;42.144;25.200;2023-04-21T10:12:37;99549.38;;;23.27;36.12
71149;BME280;59072;42.144;25.200;2023-04-21T10:15:05;99551.88;;;23.15;35.20
71149;BME280;59072;42.144;25.200;2023-04-21T10:17:51;99550.53;;;23.53;36.73
71149;BME280;59072;42.144;25.200;2023-04-21T10:20:16;99532.63;;;23.60;35.56
71149;BME280;59072;42.144;25.200;2023-04-21T10:22:42;99526.88;;;24.05;34.80
71149;BME280;59072;42.144;25.200;2023-04-21T10:25:08;99538.41;;;23.94;35.88
71149;BME280;59072;42.144;25.200;2023-04-21T10:27:41;99537.94;;;23.83;31.54
71149;BME280;59072;42.144;25.200;2023-04-21T10:30:19;99529.91;;;23.60;33.38
71149;BME280;59072;42.144;25.200;2023-04-21T10:32:46;99529.13;;;23.95;35.96
71149;BME280;59072;42.144;25.200;2023-04-21T10:35:22;99528.91;;;23.74;33.27
71149;BME280;59072;42.144;25.200;2023-04-21T10:37:49;99530.56;;;23.92;31.25
71149;BME280;59072;42.144;25.200;2023-04-21T10:40:33;99513.88;;;24.20;35.30
71149;BME280;59072;42.144;25.200;2023-04-21T10:43:02;99522.00;;;24.55;32.59
71149;BME280;59072;42.144;25.200;2023-04-21T10:45:29;99535.81;;;24.97;30.75
71149;BME280;59072;42.144;25.200;2023-04-21T10:47:54;99525.09;;;25.21;30.94
71149;BME280;59072;42.144;25.200;2023-04-21T10:50:22;99530.91;;;25.11;30.96
71149;BME280;59072;42.144;25.200;2023-04-21T10:55:19;99527.88;;;25.04;32.60
71149;BME280;59072;42.144;25.200;2023-04-21T10:57:46;99520.66;;;24.70;32.18
71149;BME280;59072;42.144;25.200;2023-04-21T11:00:21;99507.78;;;24.14;32.74
71149;BME280;59072;42.144;25.200;2023-04-21T11:03:01;99538.25;;;25.19;33.73
71149;BME280;59072;42.144;25.200;2023-04-21T11:05:38;99522.38;;;25.21;30.66
71149;BME280;59072;42.144;25.200;2023-04-21T11:08:05;99546.63;;;25.86;29.45
71149;BME280;59072;42.144;25.200;2023-04-21T11:10:50;99524.25;;;25.30;29.81
71149;BME280;59072;42.144;25.200;2023-04-21T11:13:19;99543.91;;;26.28;29.80
71149;BME280;59072;42.144;25.200;2023-04-21T11:16:04;99546.91;;;25.51;32.18
71149;BME280;59072;42.144;25.200;2023-04-21T11:21:16;99529.22;;;24.33;33.13
71149;BME280;59072;42.144;25.200;2023-04-21T11:23:55;99532.47;;;24.00;29.79
71149;BME280;59072;42.144;25.200;2023-04-21T11:26:36;99539.22;;;24.12;31.45
71149;BME280;59072;42.144;25.200;2023-04-21T11:29:04;99524.72;;;24.37;33.44
71149;BME280;59072;42.144;25.200;2023-04-21T11:31:34;99537.22;;;23.34;37.88
71149;BME280;59072;42.144;25.200;2023-04-21T11:34:00;99544.13;;;23.49;38.44
71149;BME280;59072;42.144;25.200;2023-04-21T11:36:26;99537.69;;;22.96;38.84
71149;BME280;59072;42.144;25.200;2023-04-21T11:38:52;99541.41;;;22.60;38.58
71149;BME280;59072;42.144;25.200;2023-04-21T11:41:24;99540.06;;;22.26;38.93
71149;BME280;59072;42.144;25.200;2023-04-21T11:43:50;99533.78;;;22.39;40.50
71149;BME280;59072;42.144;25.200;2023-04-21T11:46:17;99538.09;;;21.81;40.47
71149;BME280;59072;42.144;25.200;2023-04-21T11:48:43;99532.34;;;21.60;40.35
71149;BME280;59072;42.144;25.200;2023-04-21T11:51:16;99516.06;;;21.60;41.32
71149;BME280;59072;42.144;25.200;2023-04-21T11:53:45;99540.88;;;21.40;41.72
71149;BME280;59072;42.144;25.200;2023-04-21T11:56:16;99521.56;;;21.69;38.91
71149;BME280;59072;42.144;25.200;2023-04-21T11:58:42;99547.13;;;21.54;39.13
71149;BME280;59072;42.144;25.200;2023-04-21T12:01:09;99545.97;;;21.69;39.16
71149;BME280;59072;42.144;25.200;2023-04-21T12:03:35;99547.53;;;21.84;38.61
71149;BME280;59072;42.144;25.200;2023-04-21T12:06:00;99540.88;;;21.90;37.91
71149;BME280;59072;42.144;25.200;2023-04-21T12:08:30;99544.00;;;22.20;38.16
71149;BME280;59072;42.144;25.200;2023-04-21T12:10:56;99550.09;;;23.94;35.83
71149;BME280;59072;42.144;25.200;2023-04-21T12:13:27;99536.63;;;23.54;34.16
71149;BME280;59072;42.144;25.200;2023-04-21T12:15:52;99540.72;;;23.25;35.10
71149;BME280;59072;42.144;25.200;2023-04-21T12:18:18;99540.31;;;22.38;38.21
71149;BME280;59072;42.144;25.200;2023-04-21T12:20:50;99529.88;;;22.32;38.10
71149;BME280;59072;42.144;25.200;2023-04-21T12:23:17;99522.66;;;22.27;37.64
71149;BME280;59072;42.144;25.200;2023-04-21T12:25:43;99521.06;;;22.57;36.93
71149;BME280;59072;42.144;25.200;2023-04-21T12:28:10;99524.72;;;23.24;36.35
71149;BME280;59072;42.144;25.200;2023-04-21T12:30:36;99528.97;;;23.82;33.91
71149;BME280;59072;42.144;25.200;2023-04-21T12:33:01;99523.16;;;24.83;33.52
71149;BME280;59072;42.144;25.200;2023-04-21T12:35:27;99503.69;;;25.95;33.07
71149;BME280;59072;42.144;25.200;2023-04-21T12:37:53;99514.75;;;25.99;31.69
71149;BME280;59072;42.144;25.200;2023-04-21T12:40:18;99519.00;;;26.42;30.61
71149;BME280;59072;42.144;25.200;2023-04-21T12:42:43;99505.03;;;26.93;29.98
71149;BME280;59072;42.144;25.200;2023-04-21T12:45:09;99506.00;;;25.63;31.53
71149;BME280;59072;42.144;25.200;2023-04-21T12:47:35;99498.00;;;26.00;30.72
71149;BME280;59072;42.144;25.200;2023-04-21T12:50:01;99493.53;;;26.29;30.35
71149;BME280;59072;42.144;25.200;2023-04-21T12:52:27;99504.56;;;26.66;32.99